createdAt,value
2022-12-08T00:00:26.803Z,95644.97
2022-12-08T00:01:48.095Z,95641.53
2022-12-08T00:03:00.557Z,95643.13
2022-12-08T00:04:20.775Z,95638.72
2022-12-08T00:05:43.144Z,95638.75
2022-12-08T00:07:04.120Z,95636.09
2022-12-08T00:08:26.792Z,95636.03
2022-12-08T00:09:47.524Z,95634.31
2022-12-08T00:11:02.848Z,95630.84
2022-12-08T00:12:24.569Z,95629.03
2022-12-08T00:13:35.195Z,95640.97
2022-12-08T00:14:49.793Z,95647.00
2022-12-08T00:15:59.572Z,95632.59
2022-12-08T00:17:23.581Z,95632.63
2022-12-08T00:18:26.607Z,95628.31
2022-12-08T00:19:39.371Z,95632.53
2022-12-08T00:20:54.936Z,95623.94
2022-12-08T00:22:22.447Z,95623.19
2022-12-08T00:23:31.425Z,95632.63
2022-12-08T00:24:47.184Z,95621.63
2022-12-08T00:25:55.090Z,95623.38
2022-12-08T00:27:02.036Z,95619.19
2022-12-08T00:28:15.274Z,95624.28
2022-12-08T00:29:33.694Z,95617.53
2022-12-08T00:30:49.979Z,95616.50
2022-12-08T00:32:09.002Z,95619.97
2022-12-08T00:33:19.425Z,95623.41
2022-12-08T00:34:30.721Z,95618.38
2022-12-08T00:35:43.386Z,95618.47
2022-12-08T00:37:13.762Z,95618.63
2022-12-08T00:38:29.946Z,95621.22
2022-12-08T00:40:04.504Z,95624.75
2022-12-08T00:41:14.447Z,95613.00
2022-12-08T00:43:58.582Z,95607.31
2022-12-08T00:45:13.751Z,95609.06
2022-12-08T00:46:21.541Z,95610.03
2022-12-08T00:47:35.764Z,95609.25
2022-12-08T00:48:40.545Z,95610.31
2022-12-08T00:50:10.126Z,95609.63
2022-12-08T00:51:31.139Z,95613.16
2022-12-08T00:52:41.625Z,95605.63
2022-12-08T00:54:01.451Z,95605.59
2022-12-08T00:55:22.661Z,95600.63
2022-12-08T00:56:40.876Z,95611.69
2022-12-08T00:57:53.560Z,95603.28
2022-12-08T00:59:12.738Z,95605.06
2022-12-08T01:00:25.622Z,95608.56
2022-12-08T01:01:42.275Z,95605.28
2022-12-08T01:03:02.123Z,95600.28
2022-12-08T01:04:24.420Z,95601.19
2022-12-08T01:05:36.168Z,95605.53
2022-12-08T01:06:43.321Z,95608.91
2022-12-08T01:07:59.195Z,95616.53
2022-12-08T01:09:14.819Z,95612.28
2022-12-08T01:10:24.904Z,95609.81
2022-12-08T01:14:10.696Z,95609.97
2022-12-08T01:15:30.304Z,95608.25
2022-12-08T01:16:45.742Z,95604.78
2022-12-08T01:17:53.227Z,95609.91
2022-12-08T01:18:59.902Z,95611.66
2022-12-08T01:20:14.305Z,95608.25
2022-12-08T01:21:25.308Z,95609.13
2022-12-08T01:22:43.271Z,95608.34
2022-12-08T01:24:04.080Z,95612.56
2022-12-08T01:25:25.131Z,95615.09
2022-12-08T01:26:34.119Z,95613.44
2022-12-08T01:27:48.651Z,95607.56
2022-12-08T01:29:07.740Z,95604.22
2022-12-08T01:30:20.273Z,95613.56
2022-12-08T01:31:45.014Z,95615.22
2022-12-08T01:33:03.586Z,95613.59
2022-12-08T01:34:15.618Z,95622.03
2022-12-08T01:35:29.540Z,95626.25
2022-12-08T01:36:51.349Z,95626.22
2022-12-08T01:37:56.614Z,95622.88
2022-12-08T01:39:16.627Z,95625.47
2022-12-08T01:40:30.047Z,95615.41
2022-12-08T01:42:01.395Z,95612.06
2022-12-08T01:43:20.339Z,95614.66
2022-12-08T01:45:12.708Z,95613.03
2022-12-08T01:46:27.733Z,95612.22
2022-12-08T01:47:42.052Z,95613.91
2022-12-08T01:48:54.997Z,95619.00
2022-12-08T01:50:06.711Z,95611.31
2022-12-08T01:51:14.160Z,95617.22
2022-12-08T01:52:25.667Z,95614.72
2022-12-08T01:53:39.425Z,95611.31
2022-12-08T01:54:56.003Z,95618.09
2022-12-08T01:56:10.297Z,95617.28
2022-12-08T01:57:19.100Z,95612.25
2022-12-08T01:58:32.098Z,95617.34
2022-12-08T01:59:42.237Z,95617.34
2022-12-08T02:00:51.343Z,95609.78
2022-12-08T02:02:03.149Z,95619.13
2022-12-08T02:03:17.439Z,95611.50
2022-12-08T02:04:21.241Z,95614.84
2022-12-08T02:05:34.258Z,95619.97
2022-12-08T02:06:41.608Z,95609.88
2022-12-08T02:07:50.563Z,95607.31
2022-12-08T02:09:01.434Z,95608.91
2022-12-08T02:10:11.556Z,95598.72
2022-12-08T02:11:22.584Z,95608.03
2022-12-08T02:12:28.016Z,95604.63
2022-12-08T02:13:48.232Z,95604.66
2022-12-08T02:15:08.388Z,95598.75
2022-12-08T02:16:29.652Z,95604.69
2022-12-08T02:18:06.380Z,95603.06
2022-12-08T02:19:54.883Z,95603.97
2022-12-08T02:21:15.149Z,95603.13
2022-12-08T02:22:33.777Z,95598.09
2022-12-08T02:23:52.877Z,95597.25
2022-12-08T02:25:03.951Z,95595.59
2022-12-08T02:26:44.914Z,95593.09
2022-12-08T02:28:08.514Z,95588.03
2022-12-08T02:29:38.305Z,95589.78
2022-12-08T02:30:56.820Z,95585.53
2022-12-08T02:32:36.911Z,95578.81
2022-12-08T02:34:16.119Z,95577.97
2022-12-08T02:35:27.955Z,95572.06
2022-12-08T02:36:45.836Z,95570.38
2022-12-08T02:38:00.842Z,95570.38
2022-12-08T02:39:16.125Z,95568.69
2022-12-08T02:40:44.289Z,95572.06
2022-12-08T02:42:08.540Z,95572.09
2022-12-08T02:43:20.457Z,95569.50
2022-12-08T02:44:32.708Z,95566.91
2022-12-08T02:45:56.380Z,95569.44
2022-12-08T02:47:12.674Z,95565.22
2022-12-08T02:48:26.768Z,95566.97
2022-12-08T02:49:38.940Z,95565.28
2022-12-08T02:50:52.687Z,95565.31
2022-12-08T02:52:24.558Z,95567.91
2022-12-08T02:53:41.205Z,95563.69
2022-12-08T02:54:57.955Z,95558.66
2022-12-08T02:56:24.227Z,95555.28
2022-12-08T02:57:56.246Z,95560.38
2022-12-08T02:59:40.218Z,95565.50
2022-12-08T03:01:15.192Z,95561.28
2022-12-08T03:02:51.403Z,95557.91
2022-12-08T03:04:15.479Z,95561.28
2022-12-08T03:05:51.257Z,95557.91
2022-12-08T03:07:16.721Z,95559.59
2022-12-08T03:08:35.952Z,95559.63
2022-12-08T03:09:50.760Z,95557.94
2022-12-08T03:11:12.122Z,95551.19
2022-12-08T03:12:24.389Z,95556.25
2022-12-08T03:13:35.303Z,95545.28
2022-12-08T03:14:50.091Z,95546.16
2022-12-08T03:16:02.773Z,95549.50
2022-12-08T03:17:11.303Z,95547.81
2022-12-08T03:18:20.642Z,95546.13
2022-12-08T03:19:54.413Z,95548.69
2022-12-08T03:21:09.381Z,95547.84
2022-12-08T03:22:39.157Z,95547.88
2022-12-08T03:23:46.378Z,95549.56
2022-12-08T03:24:57.512Z,95547.88
2022-12-08T03:26:15.265Z,95547.84
2022-12-08T03:27:29.767Z,95543.66
2022-12-08T03:28:52.479Z,95540.28
2022-12-08T03:30:05.756Z,95539.44
2022-12-08T03:31:20.191Z,95534.38
2022-12-08T03:32:34.082Z,95535.22
2022-12-08T03:33:52.601Z,95538.59
2022-12-08T03:35:00.298Z,95529.28
2022-12-08T03:36:14.009Z,95533.53
2022-12-08T03:37:28.302Z,95528.44
2022-12-08T03:38:43.504Z,95530.97
2022-12-08T03:40:02.507Z,95531.84
2022-12-08T03:41:26.271Z,95533.53
2022-12-08T03:42:39.775Z,95525.91
2022-12-08T03:44:04.898Z,95526.75
2022-12-08T03:45:19.239Z,95529.28
2022-12-08T03:47:42.566Z,95530.06
2022-12-08T03:48:51.352Z,95519.06
2022-12-08T03:50:09.260Z,95520.75
2022-12-08T03:51:19.912Z,95516.50
2022-12-08T03:52:41.758Z,95526.59
2022-12-08T03:54:00.699Z,95518.13
2022-12-08T03:55:21.492Z,95520.69
2022-12-08T03:58:03.154Z,95519.81
2022-12-08T03:59:15.582Z,95513.88
2022-12-08T04:00:38.599Z,95512.19
2022-12-08T04:01:48.937Z,95511.34
2022-12-08T04:03:02.281Z,95509.63
2022-12-08T04:04:12.797Z,95501.22
2022-12-08T04:05:25.199Z,95509.66
2022-12-08T04:06:50.451Z,95503.75
2022-12-08T04:08:06.518Z,95502.91
2022-12-08T04:09:18.394Z,95501.19
2022-12-08T04:10:42.246Z,95502.88
2022-12-08T04:11:50.476Z,95499.50
2022-12-08T04:13:03.617Z,95506.28
2022-12-08T04:14:16.736Z,95502.81
2022-12-08T04:15:35.426Z,95501.88
2022-12-08T04:16:52.248Z,95489.03
2022-12-08T04:18:04.508Z,95497.50
2022-12-08T04:19:20.920Z,95492.34
2022-12-08T04:20:31.715Z,95488.06
2022-12-08T04:21:53.852Z,95488.88
2022-12-08T04:23:06.272Z,95489.72
2022-12-08T04:24:19.576Z,95498.06
2022-12-08T04:25:35.086Z,95497.22
2022-12-08T04:26:47.693Z,95490.50
2022-12-08T04:27:56.539Z,95487.22
2022-12-08T04:29:05.572Z,95493.94
2022-12-08T04:30:23.155Z,95484.72
2022-12-08T04:31:59.379Z,95493.28
2022-12-08T04:33:20.429Z,95494.16
2022-12-08T04:34:43.956Z,95490.78
2022-12-08T04:35:59.332Z,95494.22
2022-12-08T04:37:18.705Z,95489.16
2022-12-08T04:38:33.314Z,95494.25
2022-12-08T04:39:44.632Z,95492.56
2022-12-08T04:40:57.849Z,95498.53
2022-12-08T04:42:07.917Z,95496.00
2022-12-08T04:43:18.203Z,95506.16
2022-12-08T04:44:29.730Z,95496.88
2022-12-08T04:45:45.855Z,95491.81
2022-12-08T04:47:04.084Z,95505.34
2022-12-08T04:48:19.125Z,95491.84
2022-12-08T04:49:26.918Z,95502.00
2022-12-08T04:50:47.092Z,95492.72
2022-12-08T04:51:55.562Z,95491.91
2022-12-08T04:53:11.433Z,95494.47
2022-12-08T04:54:31.648Z,95488.59
2022-12-08T04:55:53.275Z,95487.78
2022-12-08T04:57:00.608Z,95490.31
2022-12-08T04:58:13.357Z,95492.03
2022-12-08T04:59:26.543Z,95488.63
2022-12-08T05:00:57.718Z,95488.66
2022-12-08T05:02:20.228Z,95489.53
2022-12-08T05:03:37.542Z,95491.22
2022-12-08T05:04:51.269Z,95484.50
2022-12-08T05:06:04.002Z,95480.28
2022-12-08T05:07:12.022Z,95481.16
2022-12-08T05:08:20.547Z,95483.69
2022-12-08T05:09:31.612Z,95481.16
2022-12-08T05:10:56.887Z,95477.84
2022-12-08T05:12:16.991Z,95482.09
2022-12-08T05:13:34.112Z,95471.97
2022-12-08T05:14:54.237Z,95477.00
2022-12-08T05:16:09.849Z,95467.72
2022-12-08T05:17:32.778Z,95471.97
2022-12-08T05:18:35.970Z,95473.66
2022-12-08T05:19:45.591Z,95468.63
2022-12-08T05:21:05.319Z,95472.84
2022-12-08T05:22:32.648Z,95475.38
2022-12-08T05:54:00.103Z,95459.28
2022-12-08T05:55:12.662Z,95465.97
2022-12-08T05:56:33.991Z,95460.91
2022-12-08T05:57:48.503Z,95469.31
2022-12-08T05:58:55.115Z,95461.72
2022-12-08T06:00:04.942Z,95465.09
2022-12-08T06:01:23.983Z,95464.31
2022-12-08T06:02:32.139Z,95460.91
2022-12-08T06:03:57.712Z,95460.94
2022-12-08T06:05:15.003Z,95467.69
2022-12-08T06:06:42.804Z,95454.25
2022-12-08T06:08:05.565Z,95466.91
2022-12-08T06:09:39.407Z,95459.31
2022-12-08T06:10:51.815Z,95458.44
2022-12-08T06:12:43.194Z,95460.16
2022-12-08T06:14:15.495Z,95459.31
2022-12-08T06:15:46.223Z,95458.47
2022-12-08T06:17:02.063Z,95458.44
2022-12-08T06:18:32.718Z,95461.00
2022-12-08T06:19:50.126Z,95461.88
2022-12-08T06:21:14.315Z,95457.66
2022-12-08T06:22:30.972Z,95461.91
2022-12-08T06:23:38.956Z,95458.53
2022-12-08T06:24:52.424Z,95459.41
2022-12-08T06:26:23.416Z,95462.78
2022-12-08T06:27:41.313Z,95460.25
2022-12-08T06:29:18.268Z,95466.19
2022-12-08T06:30:39.049Z,95468.69
2022-12-08T06:31:55.003Z,95467.88
2022-12-08T06:33:13.759Z,95468.72
2022-12-08T06:34:43.347Z,95467.94
2022-12-08T06:35:51.953Z,95465.44
2022-12-08T06:37:08.743Z,95479.75
2022-12-08T06:38:20.731Z,95469.63
2022-12-08T06:39:38.683Z,95471.31
2022-12-08T06:41:03.365Z,95473.78
2022-12-08T06:42:32.202Z,95473.75
2022-12-08T06:43:53.431Z,95473.75
2022-12-08T06:45:09.785Z,95463.50
2022-12-08T06:46:29.651Z,95467.63
2022-12-08T06:47:40.269Z,95466.78
2022-12-08T06:48:57.214Z,95460.06
2022-12-08T06:50:22.717Z,95465.13
2022-12-08T06:51:30.582Z,95463.44
2022-12-08T06:52:49.377Z,95472.78
2022-12-08T06:54:14.034Z,95465.97
2022-12-08T06:55:57.272Z,95464.16
2022-12-08T06:57:00.415Z,95465.78
2022-12-08T06:58:22.038Z,95457.28
2022-12-08T06:59:47.860Z,95456.31
2022-12-08T07:01:09.869Z,95460.50
2022-12-08T07:02:44.484Z,95460.47
2022-12-08T07:03:53.409Z,95460.41
2022-12-08T07:05:04.844Z,95468.88
2022-12-08T07:06:18.418Z,95459.66
2022-12-08T07:07:23.803Z,95467.38
2022-12-08T07:08:41.173Z,95472.47
2022-12-08T07:09:46.262Z,95462.31
2022-12-08T07:10:53.432Z,95461.47
2022-12-08T07:12:02.477Z,95457.28
2022-12-08T07:13:04.966Z,95458.19
2022-12-08T07:14:11.072Z,95473.44
2022-12-08T07:15:13.708Z,95471.78
2022-12-08T07:16:18.878Z,95471.78
2022-12-08T07:17:21.257Z,95467.53
2022-12-08T07:18:31.942Z,95477.69
2022-12-08T07:19:34.383Z,95473.47
2022-12-08T07:20:43.298Z,95477.72
2022-12-08T07:21:48.347Z,95473.50
2022-12-08T07:22:51.276Z,95466.75
2022-12-08T07:24:10.523Z,95469.28
2022-12-08T07:25:21.920Z,95473.47
2022-12-08T07:26:31.017Z,95468.44
2022-12-08T07:27:39.034Z,95467.63
2022-12-08T07:28:48.541Z,95473.53
2022-12-08T07:29:54.064Z,95471.84
2022-12-08T07:31:15.189Z,95471.84
2022-12-08T07:32:17.428Z,95470.16
2022-12-08T07:33:22.367Z,95475.22
2022-12-08T07:34:29.635Z,95473.53
2022-12-08T07:35:35.322Z,95472.69
2022-12-08T07:36:37.844Z,95475.22
2022-12-08T07:37:42.642Z,95474.34
2022-12-08T07:38:44.931Z,95473.50
2022-12-08T07:39:49.962Z,95471.78
2022-12-08T07:40:53.113Z,95479.38
2022-12-08T07:41:58.296Z,95472.59
2022-12-08T07:43:03.443Z,95474.28
2022-12-08T07:44:08.531Z,95477.66
2022-12-08T07:45:11.150Z,95483.53
2022-12-08T07:46:18.311Z,95481.00
2022-12-08T07:47:28.282Z,95480.16
2022-12-08T07:48:33.857Z,95479.28
2022-12-08T07:49:36.454Z,95470.81
2022-12-08T07:50:42.151Z,95480.97
2022-12-08T07:51:51.790Z,95478.41
2022-12-08T07:53:09.462Z,95474.16
2022-12-08T07:54:18.392Z,95472.44
2022-12-08T07:55:20.650Z,95472.38
2022-12-08T07:56:26.877Z,95471.50
2022-12-08T07:57:29.238Z,95471.44
2022-12-08T07:58:39.492Z,95468.84
2022-12-08T07:59:41.768Z,95472.13
2022-12-08T08:00:46.856Z,95471.25
2022-12-08T08:02:13.421Z,95462.72
2022-12-08T08:03:21.101Z,95465.00
2022-12-08T08:04:28.817Z,95457.31
2022-12-08T08:05:31.238Z,95461.47
2022-12-08T08:06:41.254Z,95464.72
2022-12-08T08:07:44.016Z,95459.66
2022-12-08T08:08:49.384Z,95466.41
2022-12-08T08:09:54.265Z,95458.66
2022-12-08T08:10:59.131Z,95454.38
2022-12-08T08:12:29.487Z,95464.47
2022-12-08T08:13:28.890Z,95459.34
2022-12-08T08:14:36.351Z,95464.34
2022-12-08T08:15:41.506Z,95452.47
2022-12-08T08:16:49.328Z,95459.22
2022-12-08T08:17:55.358Z,95457.41
2022-12-08T08:18:57.701Z,95451.47
2022-12-08T08:20:03.658Z,95457.38
2022-12-08T08:21:36.593Z,95450.53
2022-12-08T08:22:34.243Z,95450.47
2022-12-08T08:23:36.638Z,95453.88
2022-12-08T08:24:44.833Z,95452.13
2022-12-08T08:25:50.182Z,95449.53
2022-12-08T08:26:55.601Z,95448.66
2022-12-08T08:28:01.754Z,95450.31
2022-12-08T08:29:04.059Z,95452.78
2022-12-08T08:30:19.881Z,95454.38
2022-12-08T08:31:27.599Z,95449.88
2022-12-08T08:32:36.196Z,95453.03
2022-12-08T08:33:41.051Z,95450.28
2022-12-08T08:34:43.234Z,95447.50
2022-12-08T08:35:48.508Z,95442.31
2022-12-08T08:36:53.375Z,95440.38
2022-12-08T08:37:55.680Z,95439.88
2022-12-08T08:39:00.514Z,95438.59
2022-12-08T08:40:05.608Z,95441.13
2022-12-08T08:41:12.028Z,95438.47
2022-12-08T08:42:16.803Z,95441.44
2022-12-08T08:43:37.748Z,95445.63
2022-12-08T08:44:42.718Z,95440.09
2022-12-08T08:45:50.116Z,95446.09
2022-12-08T08:46:55.258Z,95448.59
2022-12-08T08:48:00.201Z,95446.56
2022-12-08T08:49:04.964Z,95443.69
2022-12-08T08:50:08.302Z,95439.22
2022-12-08T08:51:16.078Z,95441.47
2022-12-08T08:52:18.123Z,95450.22
2022-12-08T08:53:22.931Z,95446.84
2022-12-08T08:54:25.052Z,95448.94
2022-12-08T08:55:29.859Z,95445.50
2022-12-08T08:56:34.590Z,95448.84
2022-12-08T08:57:36.968Z,95444.38
2022-12-08T08:58:41.935Z,95447.00
2022-12-08T08:59:46.871Z,95446.78
2022-12-08T09:00:51.558Z,95439.72
2022-12-08T09:01:56.508Z,95441.09
2022-12-08T09:02:58.646Z,95435.75
2022-12-08T09:04:03.597Z,95430.63
2022-12-08T09:05:07.227Z,95423.47
2022-12-08T09:06:12.017Z,95421.53
2022-12-08T09:07:17.439Z,95422.88
2022-12-08T09:08:19.718Z,95412.81
2022-12-08T09:09:24.641Z,95413.34
2022-12-08T09:10:30.269Z,95421.84
2022-12-08T09:11:32.831Z,95414.34
2022-12-08T09:12:37.751Z,95422.16
2022-12-08T09:13:40.098Z,95418.00
2022-12-08T09:14:45.971Z,95408.75
2022-12-08T09:15:50.942Z,95408.28
2022-12-08T09:16:58.272Z,95406.84
2022-12-08T09:18:02.986Z,95402.69
2022-12-08T09:19:07.684Z,95413.28
2022-12-08T09:20:12.844Z,95401.69
2022-12-08T09:21:22.623Z,95402.81
2022-12-08T09:22:27.567Z,95399.75
2022-12-08T09:23:35.219Z,95411.22
2022-12-08T09:24:40.420Z,95398.03
2022-12-08T09:25:44.618Z,95395.19
2022-12-08T09:26:49.567Z,95397.38
2022-12-08T09:27:54.230Z,95399.47
2022-12-08T09:28:57.501Z,95394.88
2022-12-08T09:30:02.451Z,95386.63
2022-12-08T09:31:05.324Z,95389.28
2022-12-08T09:32:13.249Z,95394.94
2022-12-08T09:33:17.934Z,95389.16
2022-12-08T09:34:22.659Z,95399.34
2022-12-08T09:35:24.761Z,95392.56
2022-12-08T09:36:29.542Z,95409.22
2022-12-08T09:37:31.600Z,95398.31
2022-12-08T09:38:36.381Z,95399.69
2022-12-08T09:39:38.546Z,95400.50
2022-12-08T09:40:51.914Z,95409.50
2022-12-08T09:42:02.348Z,95398.91
2022-12-08T09:43:14.799Z,95385.75
2022-12-08T09:44:46.123Z,95382.59
2022-12-08T09:45:51.874Z,95379.38
2022-12-08T09:46:56.246Z,95380.03
2022-12-08T09:48:09.598Z,95390.03
2022-12-08T09:49:18.533Z,95390.91
2022-12-08T09:50:33.905Z,95381.47
2022-12-08T09:51:43.100Z,95370.13
2022-12-08T09:52:55.860Z,95362.84
2022-12-08T09:54:07.795Z,95359.97
2022-12-08T09:55:20.411Z,95366.56
2022-12-08T09:56:27.146Z,95361.69
2022-12-08T09:57:31.045Z,95350.03
2022-12-08T09:58:47.789Z,95355.66
2022-12-08T09:59:58.012Z,95357.31
2022-12-08T10:01:03.348Z,95345.72
2022-12-08T10:02:24.610Z,95341.84
2022-12-08T10:03:42.006Z,95346.47
2022-12-08T10:04:44.553Z,95348.59
2022-12-08T10:05:57.779Z,95356.69
2022-12-08T10:07:13.123Z,95364.44
2022-12-08T10:08:24.085Z,95358.31
2022-12-08T10:09:36.173Z,95353.94
2022-12-08T10:10:45.650Z,95352.38
2022-12-08T10:11:59.289Z,95358.06
2022-12-08T10:13:10.048Z,95364.59
2022-12-08T10:14:26.477Z,95356.84
2022-12-08T10:15:47.175Z,95349.59
2022-12-08T10:16:54.883Z,95349.34
2022-12-08T10:18:04.015Z,95348.16
2022-12-08T10:19:18.514Z,95347.72
2022-12-08T10:20:26.463Z,95328.06
2022-12-08T10:21:34.838Z,95340.84
2022-12-08T10:22:42.885Z,95349.53
2022-12-08T10:23:53.555Z,95352.66
2022-12-08T10:25:04.943Z,95350.34
2022-12-08T10:26:12.934Z,95344.78
2022-12-08T10:27:17.710Z,95345.28
2022-12-08T10:28:22.582Z,95337.38
2022-12-08T10:29:27.655Z,95344.81
2022-12-08T10:30:32.739Z,95354.72
2022-12-08T10:31:37.716Z,95342.50
2022-12-08T10:32:44.011Z,95349.88
2022-12-08T10:33:51.090Z,95352.22
2022-12-08T10:35:09.198Z,95345.72
2022-12-08T10:36:14.629Z,95350.97
2022-12-08T10:37:18.215Z,95349.41
2022-12-08T10:38:26.448Z,95347.47
2022-12-08T10:39:35.525Z,95344.75
2022-12-08T10:40:45.465Z,95347.81
2022-12-08T10:41:50.714Z,95333.88
2022-12-08T10:42:56.947Z,95326.09
2022-12-08T10:44:04.755Z,95324.31
2022-12-08T10:45:27.765Z,95305.78
2022-12-08T10:46:33.148Z,95309.09
2022-12-08T10:47:37.936Z,95311.75
2022-12-08T10:48:55.214Z,95308.34
2022-12-08T10:50:17.800Z,95321.63
2022-12-08T10:51:30.178Z,95307.56
2022-12-08T10:52:35.247Z,95315.81
2022-12-08T10:53:49.131Z,95304.50
2022-12-08T10:54:53.006Z,95310.38
2022-12-08T10:56:10.189Z,95303.03
2022-12-08T10:57:25.605Z,95309.44
2022-12-08T10:58:37.561Z,95308.66
2022-12-08T10:59:45.556Z,95319.28
2022-12-08T11:00:53.834Z,95311.22
2022-12-08T11:02:00.780Z,95318.00
2022-12-08T11:03:05.702Z,95303.22
2022-12-08T11:04:20.656Z,95312.25
2022-12-08T11:05:39.410Z,95314.88
2022-12-08T11:07:01.740Z,95299.09
2022-12-08T11:08:14.565Z,95292.13
2022-12-08T11:09:46.068Z,95270.47
2022-12-08T11:11:01.947Z,95288.97
2022-12-08T11:12:18.645Z,95285.41
2022-12-08T11:13:30.634Z,95261.53
2022-12-08T11:14:36.941Z,95264.16
2022-12-08T11:15:46.033Z,95263.78
2022-12-08T11:16:58.013Z,95248.31
2022-12-08T11:18:21.442Z,95262.75
2022-12-08T11:19:39.268Z,95267.13
2022-12-08T11:20:46.399Z,95249.41
2022-12-08T11:21:56.857Z,95244.22
2022-12-08T11:23:00.392Z,95238.28
2022-12-08T11:24:36.123Z,95249.28
2022-12-08T11:25:49.762Z,95254.28
2022-12-08T11:27:12.807Z,95254.75
2022-12-08T11:28:20.484Z,95243.47
2022-12-08T11:29:30.154Z,95231.47
2022-12-08T11:30:41.098Z,95233.38
2022-12-08T11:31:55.122Z,95224.72
2022-12-08T11:33:12.644Z,95232.59
2022-12-08T11:34:33.913Z,95229.63
2022-12-08T11:35:39.407Z,95221.84
2022-12-08T11:37:00.697Z,95225.81
2022-12-08T11:38:22.425Z,95230.38
2022-12-08T11:39:29.279Z,95232.22
2022-12-08T11:40:43.570Z,95226.13
2022-12-08T11:42:07.331Z,95215.09
2022-12-08T11:43:17.379Z,95206.53
2022-12-08T11:44:32.744Z,95207.47
2022-12-08T11:45:40.406Z,95205.75
2022-12-08T11:46:53.680Z,95226.25
2022-12-08T11:48:11.406Z,95213.72
2022-12-08T11:49:18.290Z,95194.63
2022-12-08T11:50:35.021Z,95191.59
2022-12-08T11:51:45.490Z,95192.88
2022-12-08T11:53:07.666Z,95188.34
2022-12-08T11:54:23.392Z,95183.38
2022-12-08T11:55:50.342Z,95188.66
2022-12-08T11:56:58.715Z,95187.66
2022-12-08T11:58:14.415Z,95195.03
2022-12-08T11:59:32.583Z,95193.34
2022-12-08T12:00:40.071Z,95195.84
2022-12-08T12:01:45.273Z,95194.53
2022-12-08T12:03:07.055Z,95194.28
2022-12-08T12:04:34.427Z,95200.09
2022-12-08T12:07:50.285Z,95197.81
2022-12-08T12:09:11.620Z,95192.91
2022-12-08T12:10:43.522Z,95195.25
2022-12-08T12:12:21.880Z,95213.97
2022-12-08T12:14:17.070Z,95222.91
2022-12-08T12:15:54.936Z,95226.41
2022-12-08T12:17:53.530Z,95246.00
2022-12-08T12:19:09.590Z,95257.84
2022-12-08T12:20:31.872Z,95248.91
2022-12-08T12:21:49.539Z,95254.16
2022-12-08T12:23:18.045Z,95250.69
2022-12-08T12:24:55.339Z,95258.75
2022-12-08T12:26:28.074Z,95268.25
2022-12-08T12:28:12.621Z,95259.59
2022-12-08T12:29:41.735Z,95270.53
2022-12-08T12:31:02.807Z,95265.44
2022-12-08T12:32:21.302Z,95256.97
2022-12-08T12:33:29.176Z,95254.53
2022-12-08T12:34:39.292Z,95253.72
2022-12-08T12:35:48.200Z,95245.56
2022-12-08T12:37:07.053Z,95235.84
2022-12-08T12:38:36.833Z,95240.03
2022-12-08T12:40:06.631Z,95250.53
2022-12-08T12:41:10.426Z,95254.06
2022-12-08T12:42:43.485Z,95253.22
2022-12-08T12:44:28.586Z,95248.34
2022-12-08T12:45:34.990Z,95243.06
2022-12-08T12:46:56.876Z,95255.13
2022-12-08T12:48:14.057Z,95254.50
2022-12-08T12:49:49.018Z,95235.63
2022-12-08T12:51:15.518Z,95226.25
2022-12-08T12:52:49.456Z,95228.34
2022-12-08T12:53:55.210Z,95221.28
2022-12-08T12:55:29.191Z,95220.13
2022-12-08T12:56:51.228Z,95210.84
2022-12-08T12:58:00.370Z,95206.88
2022-12-08T12:59:25.993Z,95207.84
2022-12-08T13:00:28.787Z,95199.34
2022-12-08T13:01:57.766Z,95196.63
2022-12-08T13:03:03.037Z,95194.69
2022-12-08T13:04:08.515Z,95193.84
2022-12-08T13:05:21.072Z,95198.56
2022-12-08T13:06:32.831Z,95206.78
2022-12-08T13:07:45.266Z,95203.38
2022-12-08T13:09:05.117Z,95198.19
2022-12-08T13:10:20.239Z,95202.66
2022-12-08T13:11:26.281Z,95190.66
2022-12-08T13:12:31.525Z,95199.72
2022-12-08T13:13:34.104Z,95204.56
2022-12-08T13:14:41.910Z,95192.28
2022-12-08T13:15:52.694Z,95193.13
2022-12-08T13:16:58.540Z,95197.63
2022-12-08T13:18:03.570Z,95203.59
2022-12-08T13:19:16.134Z,95201.50
2022-12-08T13:20:25.021Z,95195.78
2022-12-08T13:21:33.953Z,95202.63
2022-12-08T13:23:04.433Z,95189.00
2022-12-08T13:24:30.295Z,95178.34
2022-12-08T13:25:55.669Z,95192.75
2022-12-08T13:27:39.071Z,95198.38
2022-12-08T13:29:14.105Z,95195.25
2022-12-08T13:30:50.213Z,95182.88
2022-12-08T13:31:57.197Z,95196.75
2022-12-08T13:33:18.470Z,95190.44
2022-12-08T13:34:31.446Z,95189.00
2022-12-08T13:35:33.947Z,95186.69
2022-12-08T13:36:42.018Z,95197.22
2022-12-08T13:37:55.265Z,95187.47
2022-12-08T13:39:02.764Z,95184.25
2022-12-08T13:40:12.260Z,95171.94
2022-12-08T13:41:20.885Z,95185.13
2022-12-08T13:42:32.945Z,95166.19
2022-12-08T13:43:57.777Z,95186.63
2022-12-08T13:47:32.871Z,95175.44
2022-12-08T13:57:27.650Z,95208.69
2022-12-08T13:58:35.884Z,95205.16
2022-12-08T13:59:47.196Z,95204.97
2022-12-08T14:01:07.798Z,95208.00
2022-12-08T14:02:21.240Z,95203.44
2022-12-08T14:03:23.807Z,95208.84
2022-12-08T14:04:53.949Z,95221.97
2022-12-08T14:06:12.926Z,95215.19
2022-12-08T14:07:19.166Z,95196.81
2022-12-08T14:08:57.472Z,95206.34
2022-12-08T14:09:55.857Z,95198.78
2022-12-08T14:11:02.605Z,95204.44
2022-12-08T14:12:11.424Z,95214.25
2022-12-08T14:13:15.212Z,95210.88
2022-12-08T14:14:54.035Z,95226.22
2022-12-08T14:15:47.864Z,95218.59
2022-12-08T14:16:56.706Z,95217.94
2022-12-08T14:18:04.236Z,95222.50
2022-12-08T14:19:14.783Z,95228.56
2022-12-08T14:20:25.515Z,95219.75
2022-12-08T14:21:34.447Z,95218.09
2022-12-08T14:22:43.570Z,95220.09
2022-12-08T14:23:49.163Z,95221.22
2022-12-08T14:24:55.971Z,95223.09
2022-12-08T14:25:58.420Z,95217.78
2022-12-08T14:27:06.025Z,95216.38
2022-12-08T14:28:13.389Z,95216.72
2022-12-08T14:29:38.199Z,95219.34
2022-12-08T14:30:43.310Z,95212.34
2022-12-08T14:31:45.718Z,95220.22
2022-12-08T14:32:53.227Z,95219.66
2022-12-08T14:34:00.885Z,95213.69
2022-12-08T14:35:21.875Z,95221.03
2022-12-08T14:36:28.945Z,95220.47
2022-12-08T14:37:36.205Z,95216.91
2022-12-08T14:38:38.605Z,95214.38
2022-12-08T14:39:43.891Z,95224.00
2022-12-08T14:40:50.346Z,95218.56
2022-12-08T14:42:03.740Z,95220.84
2022-12-08T14:43:17.535Z,95224.50
2022-12-08T14:44:26.624Z,95224.66
2022-12-08T14:45:29.326Z,95219.38
2022-12-08T14:46:34.598Z,95222.19
2022-12-08T14:47:37.049Z,95224.03
2022-12-08T14:48:45.776Z,95231.72
2022-12-08T14:49:50.686Z,95226.81
2022-12-08T14:51:05.003Z,95224.25
2022-12-08T14:52:13.924Z,95230.25
2022-12-08T14:53:18.324Z,95221.69
2022-12-08T14:54:24.464Z,95226.91
2022-12-08T14:55:30.751Z,95227.00
2022-12-08T14:56:39.857Z,95228.75
2022-12-08T14:57:44.820Z,95224.97
2022-12-08T14:58:48.467Z,95223.56
2022-12-08T14:59:53.735Z,95223.56
2022-12-08T15:00:58.612Z,95226.91
2022-12-08T15:02:19.543Z,95226.56
2022-12-08T15:03:26.284Z,95230.06
2022-12-08T15:04:31.992Z,95229.38
2022-12-08T15:05:39.706Z,95231.19
2022-12-08T15:06:55.431Z,95232.53
2022-12-08T15:08:02.841Z,95225.09
2022-12-08T15:09:20.862Z,95224.31
2022-12-08T15:10:32.100Z,95230.19
2022-12-08T15:11:38.799Z,95220.03
2022-12-08T15:12:41.876Z,95224.34
2022-12-08T15:13:48.457Z,95225.16
2022-12-08T15:15:02.523Z,95226.06
2022-12-08T15:16:27.573Z,95222.09
2022-12-08T15:17:37.383Z,95217.97